Home > Products > Valid Products > TAF

000
FTUS46 KPDT 202100 AAB
TAFDLS
TAF AMD
KDLS 202110Z 2021/2118 VRB03KT P6SM -RA SCT005 BKN015 OVC080
      TEMPO 2021/2024 4SM -RA BKN008
     FM210000 31005KT 5SM -RA BR OVC025
     FM211000 30015G25KT P6SM VCSH OVC040=



000
FTUS46 KPDT 202000 AAC
TAFYKM
TAF AMD
KYKM 202017Z 2020/2118 VRB03KT 5SM -RA BR FEW003 BKN010 OVC030
     FM202300 VRB02KT 3SM -RA BR OVC025
     FM210300 25008KT 3SM -RA BR OVC015=



000
FTUS46 KPDT 201900 AAB
TAFYKM
TAF AMD
KYKM 201901Z 2019/2118 VRB03KT 5SM BR FEW003 SCT015 BKN025
     FM202100 VRB02KT 3SM -RA BR OVC025
     FM210300 25008KT 3SM -RA BR OVC015=



000
FTUS46 KPDT 201900 AAA
TAFDLS
TAF AMD
KDLS 201900Z 2019/2118 VRB03KT P6SM VCSH OVC008
     FM210000 31005KT 5SM -RA BR OVC025
     FM211000 30015G25KT P6SM VCSH OVC040=



000
FTUS46 KPDT 201800 AAA
TAFYKM
TAF AMD
KYKM 201820Z 2018/2118 VRB03KT 4SM BR OVC015
      TEMPO 2018/2021 2SM BR OVC009
     FM202100 VRB02KT 3SM -RA BR OVC025
     FM210300 25008KT 3SM -RA BR OVC015=



000
FTUS46 KPDT 201700
TAFDLS
TAF
KDLS 201720Z 2018/2118 VRB03KT 3SM -RA BR OVC006
     FM210000 31005KT 5SM -RA BR OVC025
     FM211000 30015G25KT P6SM VCSH OVC040=



000
FTUS46 KPDT 201700
TAFYKM
TAF
KYKM 201720Z 2018/2118 VRB03KT 3SM -RA BR OVC015
      TEMPO 2018/2021 2SM -RA BR OVC009
     FM202100 VRB02KT 3SM -RA BR OVC025
     FM210300 25008KT 3SM -RA BR OVC015=



000
FTUS46 KPDT 201700
TAFALW
TAF
KALW 201720Z 2018/2118 18013KT 6SM -RA BR OVC040
     FM202200 21014KT 6SM -RA BR OVC030
     FM210900 21020G35KT P6SM VCSH OVC025=



000
FTUS46 KPDT 201700
TAFPSC
TAF
KPSC 201720Z 2018/2118 24006KT 6SM -RA BR OVC050
     FM202100 22011KT P6SM -RA OVC040
     FM210900 22015G30KT P6SM VCSH OVC050=



000
FTUS46 KPDT 201700
TAFRDM
TAF
KRDM 201720Z 2018/2118 19013G23KT P6SM -SHRA SCT025 BKN060
     FM210600 23025G40KT P6SM -RA OVC025=



000
FTUS46 KPDT 201700
TAFPDT
TAF
KPDT 201720Z 2018/2118 18010KT 6SM -RA BR OVC040
     FM210300 23013G23KT 6SM -RA BR OVC025
     FM210900 25030G40KT P6SM VCSH OVC030=



000
FTUS46 KPDT 201600 AAA
TAFRDM
TAF AMD
KRDM 201601Z 2016/2112 19013G23KT P6SM -RA SCT025 BKN050
     FM210600 23025G40KT P6SM -RA OVC025=



000
FTUS46 KPDT 201400 AAC
TAFDLS
TAF AMD
KDLS 201449Z 2015/2112 VRB03KT 2SM -RA BR BKN007 OVC050
      TEMPO 2015/2017 4SM -RA BR SCT007 OVC025
     FM201700 VRB03KT 4SM -RA BR OVC011
     FM210000 31005KT 5SM -RA BR OVC025
     FM211000 30015G25KT P6SM VCSH OVC040=



000
FTUS46 KPDT 201400 AAB
TAFYKM
TAF AMD
KYKM 201403Z 2014/2112 VRB03KT 4SM -RA BR OVC015
      TEMPO 2014/2018 2SM -RA BR OVC009
     FM201800 VRB02KT 3SM -RA BR OVC025
     FM210300 25008KT 3SM -RA BR OVC015=



000
FTUS46 KPDT 201300 AAB
TAFDLS
TAF AMD
KDLS 201319Z 2013/2112 VRB03KT 3SM -RA BR BKN007 OVC050
      TEMPO 2013/2017 5SM -RA BR SCT007 OVC025
     FM201700 VRB03KT 4SM -RA BR OVC025
     FM210000 31005KT 5SM -RA BR OVC025
     FM211000 30015G25KT P6SM VCSH OVC040=



000
FTUS46 KPDT 201200 AAA
TAFDLS
TAF AMD
KDLS 201220Z 2012/2112 VRB03KT 3SM -RA BR OVC050
      TEMPO 2012/2015 5SM -RA BR OVC025
     FM201500 VRB03KT 4SM -RA BR OVC025
     FM210000 31005KT 5SM -RA BR OVC025
     FM211000 30015G25KT P6SM VCSH OVC040=



000
FTUS46 KPDT 201200 AAA
TAFYKM
TAF AMD
KYKM 201214Z 2012/2112 VRB03KT 4SM -RA BR OVC015
     FM201900 VRB02KT 3SM -RA BR OVC025
     FM210300 25008KT 3SM -RA BR OVC015=



000
FTUS46 KPDT 201100
TAFYKM
TAF
KYKM 201120Z 2012/2112 VRB05KT 4SM -RA BR SCT003 OVC050
     FM201400 VRB03KT 4SM -RA BR OVC015
     FM201900 VRB02KT 3SM -RA BR OVC025
     FM210300 25008KT 3SM -RA BR OVC015=



000
FTUS46 KPDT 201100
TAFDLS
TAF
KDLS 201120Z 2012/2112 VRB03KT 5SM -RA BR OVC050
      TEMPO 2012/2015 4SM -RA BR OVC025
     FM201500 VRB03KT 4SM -RA BR OVC025
     FM210000 31005KT 5SM -RA BR OVC025
     FM211000 30015G25KT P6SM VCSH OVC040=



000
FTUS46 KPDT 201100
TAFALW
TAF
KALW 201120Z 2012/2112 VRB04KT P6SM -RA OVC060
     FM201500 18009KT 6SM -RA BR OVC040
     FM202200 21014KT 6SM -RA BR OVC030
     FM210900 21020G35KT P6SM VCSH OVC025=



000
FTUS46 KPDT 201100
TAFRDM
TAF
KRDM 201120Z 2012/2112 18010KT 6SM -RA BR OVC035
     FM201500 18013KT 6SM -RA BR OVC030
     FM201800 21013G23KT P6SM -RA OVC025
     FM210600 23025G40KT P6SM -RA OVC025=



000
FTUS46 KPDT 201100
TAFPDT
TAF
KPDT 201120Z 2012/2112 VRB05KT P6SM -RA OVC045
     FM201400 16008KT 6SM -RA BR OVC040
     FM201800 18010KT 6SM -RA BR OVC020
     FM210300 23013G23KT 6SM -RA BR OVC025
     FM210900 25030G40KT P6SM VCSH OVC030=



000
FTUS46 KPDT 201100
TAFPSC
TAF
KPSC 201120Z 2012/2112 VRB04KT P6SM -RA OVC070
     FM201500 16006KT 6SM -RA BR OVC050
     FM202100 19011KT P6SM -RA OVC040
     FM210900 22015G30KT P6SM VCSH OVC050=



000
FTUS46 KPDT 201000 AAB
TAFYKM
TAF AMD
KYKM 201021Z 2010/2106 VRB05KT 4SM -RA BR SCT003 OVC050
     FM201400 VRB03KT 4SM -RA BR OVC015
     FM201900 VRB02KT 3SM -RA BR OVC025
     FM210300 25008KT 3SM -RA BR OVC015=



000
FTUS46 KPDT 200800 AAA
TAFYKM
TAF AMD
KYKM 200842Z 2009/2106 VRB05KT 3SM -RA BR BKN003 OVC050
     FM201200 VRB05KT 4SM -RA BR OVC035
     FM202000 23008KT 3SM -RA BR OVC025=



000
FTUS46 KPDT 200500
TAFDLS
TAF
KDLS 200536Z 2006/2106 VRB05KT 6SM -RA BR OVC060
     FM201200 VRB05KT 4SM -RA BR OVC030
     FM202100 31006KT 3SM -RA BR OVC025=



000
FTUS46 KPDT 200500
TAFRDM
TAF
KRDM 200536Z 2006/2106 17008KT 6SM -RA BR OVC060
     FM201200 18013KT 5SM -RA BR OVC030
     FM202000 21013KT 4SM -RA BR OVC030=



000
FTUS46 KPDT 200500
TAFALW
TAF
KALW 200536Z 2006/2106 15006KT P6SM OVC080
     FM201500 16010KT 6SM -RA BR OVC040
     FM202200 21014KT 4SM -RA BR OVC030=



000
FTUS46 KPDT 200500
TAFYKM
TAF
KYKM 200536Z 2006/2106 VRB05KT 3SM BR SCT003 OVC080
     FM201200 VRB05KT 4SM -RA BR OVC035
     FM202000 23008KT 3SM -RA BR OVC025=



000
FTUS46 KPDT 200500
TAFPDT
TAF
KPDT 200536Z 2006/2106 15006KT P6SM OVC080
     FM201400 16010KT 6SM -RA BR OVC040
     FM202200 22014KT 4SM -RA BR OVC030=



000
FTUS46 KPDT 200500
TAFPSC
TAF
KPSC 200536Z 2006/2106 15005KT P6SM OVC080
     FM201400 15008KT 6SM -RA BR OVC040
     FM202200 22014KT 4SM -RA BR OVC030=



000
FTUS46 KPDT 200300 AAA
TAFYKM
TAF AMD
KYKM 200305Z 2003/2024 27006KT 6SM BR SCT003 OVC120
     FM200800 22003KT 2SM -RA BR OVC004=



000
FTUS46 KPDT 192300
TAFYKM
TAF
KYKM 192340Z 2000/2024 18005KT P6SM SCT009 SCT250
      TEMPO 2001/2003 VRB03KT BKN009 BKN250
     FM200300 VRB03KT 4SM BR OVC007
     FM200700 22003KT 2SM -RA BR OVC004=



000
FTUS46 KPDT 192300
TAFDLS
TAF
KDLS 192340Z 2000/2024 31005KT P6SM SCT100 BKN120
     FM200300 11002KT 5SM BR BKN050 OVC080
     FM200500 VRB03KT 3SM -RA BR BKN030 OVC040=



000
FTUS46 KPDT 192300
TAFPDT
TAF
KPDT 192340Z 2000/2024 21006KT P6SM FEW045 SCT060 SCT250
     FM200400 16007KT P6SM SCT080 BKN180
     FM200900 14007KT P6SM -RA BKN035 OVC050=



000
FTUS46 KPDT 192300
TAFRDM
TAF
KRDM 192340Z 2000/2024 34006KT P6SM BKN050 BKN250
     FM200500 16006KT 6SM -RA BR BKN030 OVC040
     FM201600 17012KT P6SM VCSH SCT050 BKN070 OVC080=



000
FTUS46 KPDT 192300
TAFALW
TAF
KALW 192340Z 2000/2024 19007KT P6SM VCSH SCT050 BKN100
     FM200400 16007KT P6SM SCT080 BKN250
     FM200900 14007KT P6SM -RA BKN035 OVC050=



000
FTUS46 KPDT 192300
TAFPSC
TAF
KPSC 192340Z 2000/2024 24010KT P6SM SCT080 BKN250
     FM201100 16004KT 6SM -RA BR BKN040 OVC050=



000
FTUS46 KPDT 191900 AAA
TAFYKM
TAF AMD
KYKM 191941Z 1920/2018 12003KT 6SM BR OVC007
      TEMPO 1920/1921 4SM BR OVC005
     FM192100 18005KT P6SM SCT009 SCT250
      TEMPO 2001/2003 VRB03KT BKN009 BKN250
     FM200300 VRB03KT 4SM BR OVC007
     FM200900 22003KT 2SM -RA BR OVC004=



000
FTUS46 KPDT 191900 AAA
TAFYKM
TAF AMD
KYKM 191941Z 1920/2018 12003KT 6SM BR OVC007
      TEMPO 1920/1921 4SM BR OVC005
     FM192100 18005KT P6SM SCT009 SCT250
      TEMPO 2001/2003 VRB03KT BKN009 BKN250
     FM200300 VRB03KT 4SM BR OVC007
     FM200900 22003KT 2SM -RA BR OVC004=



000
FTUS46 KPDT 191900 AAD
TAFDLS
TAF AMD
KDLS 191917Z 1919/2018 32004KT P6SM BKN005 BKN200
      TEMPO 1919/1921 00000KT 5SM BR OVC004
     FM192100 31005KT P6SM FEW007 SCT050 SCT200
     FM200400 11002KT 5SM BR SCT040 OVC070
     FM200700 08003KT 3SM -RA BR BKN035 OVC045=



000
FTUS46 KPDT 191900 AAB
TAFPDT
TAF AMD
KPDT 191911Z 1919/2018 18005KT P6SM FEW040 SCT050 BKN080
     FM192000 26010KT P6SM SCT080 BKN250
     FM192200 26010KT P6SM FEW080 SCT100 SCT250
     FM200400 16007KT P6SM SCT080 BKN180
     FM200900 14007KT P6SM -RA BKN035 OVC050=



000
FTUS46 KPDT 191800 AAC
TAFDLS
TAF AMD
KDLS 191857Z 1919/2018 32005KT P6SM SCT005 SCT007 BKN200
     FM192000 32008KT P6SM FEW009 SCT050 SCT200
     FM200400 11002KT 5SM BR SCT040 OVC070
     FM200700 08003KT 3SM -RA BR BKN035 OVC045=



000
FTUS46 KPDT 191800 AAA
TAFRDM
TAF AMD
KRDM 191842Z 1919/2018 VRB05KT P6SM FEW050 SCT070 BKN090
     FM192100 23007KT P6SM FEW070 BKN200
     FM200500 15005KT P6SM VCSH SCT050 OVC100
     FM200700 16006KT 6SM -RA BR BKN035 OVC050
     FM201500 17012KT P6SM VCSH SCT050 BKN070 OVC080=



000
FTUS46 KPDT 191800 AAA
TAFALW
TAF AMD
KALW 191814Z 1918/2018 17006KT 4SM -RA BR SCT025 OVC035
     FM192000 21010KT P6SM BKN035 OVC050
     FM200000 19007KT P6SM VCSH SCT050 BKN100
     FM200400 16007KT P6SM SCT080 BKN250
     FM200900 14007KT P6SM -RA BKN035 OVC050=



000
FTUS46 KPDT 191800 AAA
TAFPDT
TAF AMD
KPDT 191811Z 1918/2018 14005KT 3SM -RA BR SCT030 OVC035
     FM192000 26008KT P6SM SCT035 OVC050
     FM200000 25007KT P6SM SCT050 SCT080
     FM200400 16007KT P6SM SCT080 BKN250
     FM200900 14007KT P6SM -RA BKN035 OVC050=



000
FTUS46 KPDT 191700 AAB
TAFDLS
TAF AMD
KDLS 191747Z 1918/2018 12004KT 3SM BR OVC007
     FM192000 VRB04KT P6SM SCT012 SCT050 BKN200
     FM200400 10002KT 5SM BR SCT040 OVC070
     FM200700 08003KT 3SM -RA BR BKN035 OVC045=



000
FTUS46 KPDT 191700 AAA
TAFDLS
TAF AMD
KDLS 191745Z 1918/2018 12004KT 4SM BR BKN007 BKN050 OVC070
     FM192000 VRB04KT P6SM SCT012 SCT050 BKN200
     FM200400 10002KT 5SM BR SCT040 OVC070
     FM200700 08003KT 3SM -RA BR BKN035 OVC045=



000
FTUS46 KPDT 191700
TAFDLS
TAF
KDLS 191740Z 1918/2018 12004KT 4SM BR VCSH SCT007 BKN045 OVC070
      TEMPO 1918/1919 4SM -RA BR SCT004 SCT015 OVC040
     FM192000 VRB04KT P6SM SCT012 SCT050 BKN200
     FM200400 10002KT 5SM BR SCT040 OVC070
     FM200700 08003KT 3SM -RA BR BKN035 OVC045=



000
FTUS46 KPDT 191700
TAFYKM
TAF
KYKM 191740Z 1918/2018 VRB03KT 4SM BR OVC012
     FM192100 VRB03KT 6SM HZ OVC015
     FM200300 VRB03KT 4SM BR OVC009
     FM200900 22003KT 2SM -RA BR OVC004=



000
FTUS46 KPDT 191700
TAFPSC
TAF
KPSC 191740Z 1918/2018 18005KT P6SM SCT070 OVC100
     FM191900 21010KT P6SM SCT090 BKN100
     FM192200 22004KT P6SM SCT080 BKN250
     FM201100 16004KT 6SM -RA BR BKN040 OVC050=



000
FTUS46 KPDT 191700
TAFPDT
TAF
KPDT 191740Z 1918/2018 14005KT 3SM -RA BR SCT030 OVC035
     FM192000 26008KT P6SM SCT035 OVC050
     FM200000 25007KT P6SM SCT050 BKN100
     FM200400 20005KT P6SM OVC030=



000
FTUS46 KPDT 191700
TAFALW
TAF
KALW 191740Z 1918/2018 18006KT 4SM -RA BR SCT020 OVC035
     FM192100 21010KT P6SM BKN035 OVC050
     FM200000 19007KT P6SM VCSH SCT050 BKN100
     FM200300 18007KT P6SM OVC015=



000
FTUS46 KPDT 191700
TAFRDM
TAF
KRDM 191740Z 1918/2018 23005KT 6SM -SHRA BR BKN070 BKN100
     FM200300 10004KT P6SM VCSH SCT070 BKN100 OVC150=



000
FTUS46 KPDT 191700 AAA
TAFPDT
TAF AMD
KPDT 191733Z 1918/2012 14005KT 3SM -RA BR SCT030 OVC035
     FM192000 26008KT P6SM SCT035 OVC050
     FM200000 25007KT P6SM SCT050 BKN100
     FM200400 20005KT P6SM OVC030=



000
FTUS46 KPDT 191700 AAA
TAFDLS
TAF AMD
KDLS 191728Z 1917/2012 12004KT 4SM BR VCSH SCT007 BKN045 OVC070
      TEMPO 1917/1919 4SM -RA BR SCT004 SCT015 OVC040
     FM192000 VRB04KT P6SM SCT012 SCT050 BKN200
     FM200400 10002KT 5SM BR SCT040 OVC070
     FM200700 08003KT 3SM -RA BR BKN035 OVC045=



000
FTUS46 KPDT 191700 AAD
TAFYKM
TAF AMD
KYKM 191714Z 1917/2012 29003KT 5SM BR OVC010
     FM191800 VRB03KT 4SM BR OVC012
     FM192100 VRB03KT 6SM HZ OVC015
     FM200300 VRB03KT 4SM BR OVC009
     FM200900 22003KT 2SM -RA BR OVC004=



000
FTUS46 KPDT 191700 AAB
TAFPSC
TAF AMD
KPSC 191704Z 1917/2012 VRB05KT P6SM SCT080 BKN110
     FM191800 19009KT P6SM SCT070 BKN090
     FM191900 21010KT P6SM BKN060 OVC080
     FM192200 22004KT P6SM SCT080 BKN250
     FM201100 16004KT 6SM -RA BR BKN040 OVC050=



000
FTUS46 KPDT 191500 AAB
TAFPDT
TAF AMD
KPDT 191550Z 1916/2012 32006KT 3SM -RA BR SCT005 BKN045 OVC070
      TEMPO 1916/1918 3/4SM BR BKN005 OVC045
     FM191800 18005KT 2SM -RA BR OVC035
     FM192000 26010KT 5SM HZ SCT025 OVC050
     FM200000 25007KT P6SM SCT050 BKN100
     FM200400 20005KT P6SM OVC030=



000
FTUS46 KPDT 191500 AAA
TAFPSC
TAF AMD
KPSC 191546Z 1916/2012 13003KT 4SM -SHRA BR SCT008 OVC060
     FM191800 23006KT 4SM BR BKN015 OVC035
     FM192000 24008KT P6SM OVC025
     FM200000 20004KT P6SM SCT060 BKN250
     FM200500 VRB03KT 6SM BR OVC100=



000
FTUS46 KPDT 191400 AAD
TAFALW
TAF AMD
KALW 191456Z 1915/2012 24009KT 5SM -RA BR OVC060
     FM191600 18005KT 3SM -RA BR OVC025
     FM191800 21006KT 4SM -RA BR OVC015
     FM192100 21010KT P6SM SCT015 BKN035 OVC050
     FM200000 19007KT P6SM VCSH SCT050 BKN100
     FM200300 18007KT P6SM OVC015=



000
FTUS46 KPDT 191400 AAC
TAFDLS
TAF AMD
KDLS 191433Z 1915/2012 VRB03KT P6SM OVC004
      TEMPO 1915/1919 4SM BR SCT004 OVC010
     FM192200 VRB04KT P6SM OVC025
     FM200400 10002KT 4SM BR OVC015=



000
FTUS46 KPDT 191400 AAC
TAFYKM
TAF AMD
KYKM 191431Z 1915/2012 VRB03KT 1/2SM FG OVC002
      TEMPO 1915/1918 2SM BR OVC005
     FM191800 VRB03KT 4SM BR OVC009
     FM192100 VRB03KT 6SM HZ OVC015
     FM200300 VRB03KT 4SM BR OVC009=



000
FTUS46 KPDT 191400 AAC
TAFALW
TAF AMD
KALW 191401Z 1914/2012 15015KT 6SM -RA BR OVC060
     FM191600 18005KT 3SM -RA BR OVC025
     FM191800 21006KT 4SM -RA BR OVC015
     FM192100 21010KT P6SM SCT015 BKN035 OVC050
     FM200000 19007KT P6SM VCSH SCT050 BKN100
     FM200300 18007KT P6SM OVC015=



000
FTUS46 KPDT 191400 AAB
TAFPDT
TAF AMD
KPDT 191400Z 1914/2012 13008KT 1/2SM -RA FG SCT002 OVC050
      TEMPO 1914/1916 1/4SM FG OVC002
     FM191600 18005KT 2SM -RA BR OVC035
     FM192000 26010KT 5SM HZ SCT025 OVC050
     FM200000 25007KT P6SM SCT050 BKN100
     FM200400 20005KT P6SM OVC030=



000
FTUS46 KPDT 191300 AAA
TAFPDT
TAF AMD
KPDT 191335Z 1914/2012 13008KT 2SM -RA BR OVC060
     FM191500 18005KT 4SM -RA BR OVC035
     FM192000 26010KT 5SM HZ SCT025 OVC050
     FM200000 25007KT P6SM SCT050 BKN100
     FM200400 20005KT P6SM OVC030=



000
FTUS46 KPDT 191300 AAB
TAFPSC
TAF AMD
KPSC 191304Z 1913/2012 VRB03KT 4SM BR SCT008 OVC060
      TEMPO 1913/1916 5SM BR BKN008 OVC060
     FM191800 23006KT 4SM BR BKN015 OVC035
     FM192000 24008KT P6SM OVC025
     FM200000 20004KT P6SM SCT060 BKN250
     FM200500 VRB03KT 6SM BR OVC100=



000
FTUS46 KPDT 191300 AAB
TAFPSC
TAF AMD
KPSC 191304Z 1913/2012 VRB03KT 4SM BR SCT008 OVC060
      TEMPO 1913/1916 5SM BR BKN008 OVC060
     FM191800 23006KT 4SM BR BKN015 OVC035
     FM192000 24008KT P6SM OVC025
     FM200000 20004KT P6SM SCT060 BKN250
     FM200500 VRB03KT 6SM BR OVC100=



000
FTUS46 KPDT 191300 AAB
TAFALW
TAF AMD
KALW 191302Z 1913/2012 14010KT 6SM -RA BR OVC060
     FM191500 18005KT 3SM -RA BR OVC025
     FM191800 21006KT 4SM -RA BR OVC015
     FM192100 21010KT P6SM SCT015 BKN035 OVC050
     FM200000 19007KT P6SM VCSH SCT050 BKN100
     FM200300 18007KT P6SM OVC015=



000
FTUS46 KPDT 191300 AAB
TAFALW
TAF AMD
KALW 191302Z 1913/2012 14010KT 6SM -RA BR OVC060
     FM191500 18005KT 3SM -RA BR OVC025
     FM191800 21006KT 4SM -RA BR OVC015
     FM192100 21010KT P6SM SCT015 BKN035 OVC050
     FM200000 19007KT P6SM VCSH SCT050 BKN100
     FM200300 18007KT P6SM OVC015=



000
FTUS46 KPDT 191300 AAB
TAFYKM
TAF AMD
KYKM 191301Z 1913/2012 VRB03KT 3SM BR SCT005 OVC010
      TEMPO 1913/1916 2SM BR OVC005
     FM191800 VRB03KT 4SM BR OVC009
     FM192100 VRB03KT 6SM HZ OVC015
     FM200300 VRB03KT 4SM BR OVC009=



000
FTUS46 KPDT 191300 AAB
TAFYKM
TAF AMD
KYKM 191301Z 1913/2012 VRB03KT 3SM BR SCT005 OVC010
      TEMPO 1913/1916 2SM BR OVC005
     FM191800 VRB03KT 4SM BR OVC009
     FM192100 VRB03KT 6SM HZ OVC015
     FM200300 VRB03KT 4SM BR OVC009=



000
FTUS46 KPDT 191200 AAB
TAFDLS
TAF AMD
KDLS 191259Z 1913/2012 19003KT 1SM BR OVC070
     FM191500 VRB02KT 2SM BR OVC015
     FM192200 VRB04KT P6SM OVC025
     FM200400 10002KT 4SM BR OVC015=



000
FTUS46 KPDT 191200 AAA
TAFPSC
TAF AMD
KPSC 191205Z 1912/2012 VRB03KT 4SM BR OVC008
     FM191800 23006KT 4SM BR BKN015 OVC035
     FM192000 24008KT P6SM OVC025
     FM200000 20004KT P6SM SCT060 BKN250
     FM200500 VRB03KT 6SM BR OVC100=



000
FTUS46 KPDT 191200 AAA
TAFDLS
TAF AMD
KDLS 191204Z 1912/2012 19003KT 4SM BR OVC070
     FM191500 VRB02KT 4SM BR OVC015
     FM192200 VRB04KT P6SM OVC025
     FM200400 10002KT 4SM BR OVC015=



000
FTUS46 KPDT 191200 AAA
TAFALW
TAF AMD
KALW 191203Z 1912/2012 21010KT 5SM -RA BR OVC060
     FM191500 18005KT 3SM -RA BR OVC025
     FM191800 21006KT 4SM -RA BR OVC015
     FM192100 21010KT P6SM SCT015 BKN035 OVC050
     FM200000 19007KT P6SM VCSH SCT050 BKN100
     FM200300 18007KT P6SM OVC015=



000
FTUS46 KPDT 191200 AAA
TAFYKM
TAF AMD
KYKM 191202Z 1912/2012 VRB03KT 6SM BR SCT005 OVC011
      TEMPO 1912/1916 4SM BR OVC005
     FM191800 VRB03KT 4SM BR OVC009
     FM192100 VRB03KT 6SM HZ OVC015
     FM200300 VRB03KT 4SM BR OVC009=



000
FTUS46 KPDT 191100
TAFRDM
TAF
KRDM 191120Z 1912/2012 19008KT 6SM -RA BR SCT015 BKN060 OVC080
     FM191800 23005KT 6SM -SHRA BR BKN070 BKN100
     FM200300 10004KT P6SM VCSH SCT070 BKN100 OVC150=



000
FTUS46 KPDT 191100
TAFPDT
TAF
KPDT 191120Z 1912/2012 13008KT 6SM -RA BR OVC060
     FM191500 18005KT 4SM -RA BR OVC035
     FM192000 26010KT 5SM HZ SCT025 OVC050
     FM200000 25007KT P6SM SCT050 BKN100
     FM200400 20005KT P6SM OVC030=



000
FTUS46 KPDT 191100
TAFPSC
TAF
KPSC 191120Z 1912/2012 VRB03KT 4SM -RA BR SCT009 OVC060
     FM191800 23006KT 4SM BR BKN015 OVC035
     FM192000 24008KT P6SM OVC025
     FM200000 20004KT P6SM SCT060 BKN250
     FM200500 VRB03KT 6SM BR OVC100=



000
FTUS46 KPDT 191100
TAFDLS
TAF
KDLS 191120Z 1912/2012 19003KT 6SM BR OVC070
     FM191500 VRB02KT 4SM BR OVC015
     FM192200 VRB04KT P6SM OVC025
     FM200400 10002KT 4SM BR OVC015=



000
FTUS46 KPDT 191100
TAFYKM
TAF
KYKM 191120Z 1912/2012 VRB03KT 2SM -RA BR OVC005
     FM191800 VRB03KT 4SM BR OVC009
     FM192100 VRB03KT 6SM HZ OVC015
     FM200300 VRB03KT 4SM BR OVC009=



000
FTUS46 KPDT 191100
TAFALW
TAF
KALW 191120Z 1912/2012 17010KT 6SM -RA BR OVC060
     FM191500 18005KT 3SM -RA BR OVC025
     FM191800 21006KT 4SM -RA BR OVC015
     FM192100 21010KT P6SM SCT015 BKN035 OVC050
     FM200000 19007KT P6SM VCSH SCT050 BKN100
     FM200300 18007KT P6SM OVC015=



000
FTUS46 KPDT 190900 AAA
TAFPSC
TAF AMD
KPSC 190932Z 1910/2006 VRB03KT 4SM -RA BR SCT009 OVC060
     FM191200 VRB03KT 3SM -RA BR SCT009 OVC015
     FM191800 23006KT 4SM BR BKN015 OVC035
     FM192000 24008KT P6SM OVC025
     FM200000 20004KT P6SM SCT060 BKN250
     FM200500 VRB03KT 6SM BR OVC100=



000
FTUS46 KPDT 190900 AAD
TAFALW
TAF AMD
KALW 190927Z 1909/2006 05005KT 5SM -RA BR OVC060
     FM191200 18005KT 2SM -RA BR OVC015
     FM191800 21006KT 4SM -RA BR BKN009 OVC015
     FM192100 21010KT P6SM SCT015 BKN035 OVC050
     FM200000 19007KT P6SM VCSH SCT050 BKN100
     FM200300 18007KT P6SM OVC015=



000
FTUS46 KPDT 190900 AAB
TAFYKM
TAF AMD
KYKM 190920Z 1909/2006 VRB03KT 5SM -RA BR BKN007 OVC015
     FM191200 VRB02KT 3SM -RA BR OVC005
     FM191800 VRB03KT 4SM BR OVC009
     FM192100 VRB03KT 6SM HZ OVC015
     FM200300 VRB03KT 4SM BR OVC009=



000
FTUS46 KPDT 190900 AAB
TAFYKM
TAF AMD
KYKM 190920Z 1909/2006 VRB03KT 5SM -RA BR BKN007 OVC015
     FM191200 VRB02KT 3SM -RA BR OVC005
     FM191800 VRB03KT 4SM BR OVC009
     FM192100 VRB03KT 6SM HZ OVC015
     FM200300 VRB03KT 4SM BR OVC009=



000
FTUS46 KPDT 190900 AAB
TAFPDT
TAF AMD
KPDT 190910Z 1909/2006 13008KT 6SM -RA BR OVC060
     FM191200 18005KT 4SM -RA BR OVC035
     FM191500 VRB04KT 2SM BR BKN025 OVC050
     FM192000 26010KT 5SM HZ SCT025 OVC050
     FM200000 25007KT P6SM SCT050 BKN100
     FM200400 20005KT P6SM OVC030=



000
FTUS46 KPDT 190900 AAB
TAFDLS
TAF AMD
KDLS 190904Z 1909/2006 VRB04KT 6SM BR VCSH OVC011
     FM191200 VRB02KT 4SM -RA BR OVC009
     FM191500 VRB02KT 4SM BR OVC015
     FM192200 VRB04KT P6SM OVC025
     FM200400 10002KT 4SM BR OVC015=



000
FTUS46 KPDT 190800 AAC
TAFALW
TAF AMD
KALW 190804Z 1908/2006 03005KT 2SM BR VCSH SCT060 OVC100
     FM190900 17005KT 1SM -SHRA BR BKN050 OVC070
     FM191200 20004KT 4SM -RA BR BKN025 OVC040
     FM191800 21006KT 2SM -RA BR BKN009 OVC015
     FM192100 21010KT 5SM -SHRA BR SCT015 BKN035 OVC050
     FM200000 18007KT P6SM VCSH SCT050 BKN100=



000
FTUS46 KPDT 190700 AAA
TAFYKM
TAF AMD
KYKM 190734Z 1908/2006 26003KT 5SM -RA BR OVC005
     FM191200 VRB02KT 3SM -RA BR OVC005
     FM191800 27006KT P6SM VCSH SCT005 BKN050 BKN100
     FM200000 27004KT P6SM SCT100
     FM200500 29002KT 5SM BR SCT050 BKN100 OVC150=



000
FTUS46 KPDT 190700 AAA
TAFPDT
TAF AMD
KPDT 190722Z 1907/2006 13005KT 2SM -SHRA BR OVC080
     FM191200 16003KT 2SM -RA BR BKN015 OVC025
     FM191800 27007KT 3SM -RA BR BKN025 OVC050
     FM192100 27007KT 5SM -SHRA BR SCT025 BKN050 OVC100
     FM200300 10004KT P6SM SCT050 SCT100=



000
FTUS46 KPDT 190700 AAA
TAFDLS
TAF AMD
KDLS 190720Z 1907/2006 36003KT 4SM -RA BR OVC009
     FM191000 VRB02KT 2SM -RA BR OVC006
     FM191500 12002KT 3SM -SHRA BR SCT006 BKN015 OVC035
     FM192100 29004KT P6SM VCSH SCT035 BKN050 OVC100
     FM200300 13001KT P6SM SCT050 BKN100=



000
FTUS46 KPDT 190700 AAB
TAFALW
TAF AMD
KALW 190720Z 1907/2006 03005KT 1/4SM FG VCSH SCT060 OVC100
     FM190900 17005KT 1SM -SHRA BR BKN050 OVC070
     FM191200 20004KT 4SM -RA BR BKN025 OVC040
     FM191800 21006KT 2SM -RA BR BKN009 OVC015
     FM192100 21010KT 5SM -SHRA BR SCT015 BKN035 OVC050
     FM200000 18007KT P6SM VCSH SCT050 BKN100=



000
FTUS46 KPDT 190700 AAA
TAFALW
TAF AMD
KALW 190704Z 1907/2006 03005KT 1SM BR VCSH SCT060 OVC100
     FM190900 17005KT 5SM -SHRA BR BKN050 OVC070
     FM191200 20004KT 4SM -RA BR BKN025 OVC040
     FM191800 21006KT 2SM -RA BR BKN009 OVC015
     FM192100 21010KT 5SM -SHRA BR SCT015 BKN035 OVC050
     FM200000 18007KT P6SM VCSH SCT050 BKN100=



000
FTUS46 KPDT 190500
TAFRDM
TAF
KRDM 190537Z 1906/2006 17004KT 6SM -RA BR SCT015 BKN060 OVC080
     FM191800 23005KT 6SM -SHRA BR BKN070 BKN100
     FM200300 10004KT P6SM VCSH SCT070 BKN100 OVC150=



000
FTUS46 KPDT 190500
TAFDLS
TAF
KDLS 190537Z 1906/2006 36003KT 5SM -RA BR OVC013
     FM191000 VRB02KT 2SM -RA BR OVC006
     FM191500 12002KT 3SM -SHRA BR SCT006 BKN015 OVC035
     FM192100 29004KT P6SM VCSH SCT035 BKN050 OVC100
     FM200300 13001KT P6SM SCT050 BKN100=



000
FTUS46 KPDT 190500
TAFYKM
TAF
KYKM 190537Z 1906/2006 26003KT 5SM -RA BR OVC010
     FM191200 VRB02KT 3SM -RA BR OVC005
     FM191800 27006KT P6SM VCSH SCT005 BKN050 BKN100
     FM200000 27004KT P6SM SCT100
     FM200500 29002KT 5SM BR SCT050 BKN100 OVC150=



000
FTUS46 KPDT 190500
TAFALW
TAF
KALW 190537Z 1906/2006 03005KT 6SM BR VCSH SCT060 OVC100
     FM190900 17005KT 5SM -SHRA BR BKN050 OVC070
     FM191200 20004KT 4SM -RA BR BKN025 OVC040
     FM191800 21006KT 2SM -RA BR BKN009 OVC015
     FM192100 21010KT 5SM -SHRA BR SCT015 BKN035 OVC050
     FM200000 18007KT P6SM VCSH SCT050 BKN100=



000
FTUS46 KPDT 190500
TAFPDT
TAF
KPDT 190537Z 1906/2006 13005KT 6SM -SHRA BR OVC080
     FM191200 16003KT 2SM -RA BR BKN015 OVC025
     FM191800 27007KT 3SM -RA BR BKN025 OVC050
     FM192100 27007KT 5SM -SHRA BR SCT025 BKN050 OVC100
     FM200300 10004KT P6SM SCT050 SCT100=



000
FTUS46 KPDT 190500
TAFPSC
TAF
KPSC 190537Z 1906/2006 34005KT 5SM -SHRA BR OVC013
     FM190900 VRB06KT 3SM -RA BR SCT009 OVC015
     FM191500 24003KT 5SM -SHRA BR BKN015 OVC035
     FM192100 24010KT P6SM VCSH SCT035 BKN070
     FM200300 23005KT P6SM SCT100=



000
FTUS46 KPDT 190300 AAD
TAFALW
TAF AMD
KALW 190339Z 1904/1924 VRB02KT 3SM BR VCSH SCT001 SCT060 OVC090
     FM190400 VRB02KT 5SM -SHRA BR BKN050 OVC090
     FM190600 17005KT 6SM -SHRA BR SCT002 BKN050 OVC090
     FM190800 18007KT P6SM -RA BKN035 OVC050
     FM191100 17006KT 6SM RA BR BKN020 OVC027=



000
FTUS46 KPDT 190300 AAB
TAFPDT
TAF AMD
KPDT 190339Z 1904/1924 13005KT 2SM BR VCSH BKN100 OVC120
      TEMPO 1904/1906 1/2SM -SHRA FG FEW001 BKN060 OVC080
     FM190700 14006KT 5SM -RA BR BKN050 OVC060
     FM190900 16008KT 3SM -RA BR BKN040 OVC050
     FM191300 19010KT 3SM RA BKN020 OVC030
      TEMPO 1914/1917 2SM RA BR BKN010 OVC018
     FM191900 22006KT P6SM SCT035 BKN045=



000
FTUS46 KPDT 190300 AAD
TAFALW
TAF AMD
KALW 190339Z 1904/1924 VRB02KT 3SM BR VCSH SCT001 SCT060 OVC090
     FM190400 VRB02KT 5SM -SHRA BR BKN050 OVC090
     FM190600 17005KT 6SM -SHRA BR SCT002 BKN050 OVC090
     FM190800 18007KT P6SM -RA BKN035 OVC050
     FM191100 17006KT 6SM RA BR BKN020 OVC027=



000
FTUS46 KPDT 190300 AAB
TAFPDT
TAF AMD
KPDT 190339Z 1904/1924 13005KT 2SM BR VCSH BKN100 OVC120
      TEMPO 1904/1906 1/2SM -SHRA FG FEW001 BKN060 OVC080
     FM190700 14006KT 5SM -RA BR BKN050 OVC060
     FM190900 16008KT 3SM -RA BR BKN040 OVC050
     FM191300 19010KT 3SM RA BKN020 OVC030
      TEMPO 1914/1917 2SM RA BR BKN010 OVC018
     FM191900 22006KT P6SM SCT035 BKN045=



000
FTUS46 KPDT 190200 AAC
TAFALW
TAF AMD
KALW 190255Z 1903/1924 VRB02KT 1SM BR VCSH SCT001 SCT060 OVC090
     FM190400 VRB02KT 2SM -SHRA BR BKN050 OVC090
     FM190600 17005KT 6SM -SHRA BR SCT002 BKN050 OVC090
     FM190800 18007KT P6SM -RA BKN035 OVC050
     FM191100 17006KT 6SM RA BR BKN020 OVC027=



000
FTUS46 KPDT 190200 AAB
TAFALW
TAF AMD
KALW 190220Z 1902/1924 VRB02KT 1SM BR VCSH SCT001 SCT060 OVC090
      TEMPO 1902/1904 1/4SM FG BKN001 OVC090
     FM190400 VRB02KT 1/2SM -SHRA FG BKN002 OVC090
     FM190600 17005KT 6SM -SHRA BR SCT002 BKN050 OVC090
     FM190800 18007KT P6SM -RA BKN035 OVC050
     FM191100 17006KT 6SM RA BR BKN020 OVC027=



000
FTUS46 KPDT 190000 AAA
TAFDLS
TAF AMD
KDLS 190029Z 1900/1924 00000KT P6SM VCSH BKN017 OVC100
      TEMPO 1900/1902 OVC015
     FM190200 VRB03KT 6SM -RA BR BKN015 OVC050
     FM190600 00000KT 3SM -RA BR OVC015
     FM191000 VRB02KT 2SM -RA BR OVC005
     FM191200 28003KT 1SM BR OVC002=



000
FTUS46 KPDT 190000 AAA
TAFALW
TAF AMD
KALW 190023Z 1900/1924 VRB03KT 3SM BR BKN080 OVC100
     FM190100 00000KT 3SM BR VCSH SCT060 OVC080
      TEMPO 1901/1905 3SM -SHRA BR BKN050 OVC070
     FM190500 17005KT P6SM SCT050 OVC080
     FM190800 18007KT P6SM -RA BKN035 OVC050
     FM191100 17006KT 6SM RA BR BKN020 OVC027=



000
FTUS46 KPDT 190000 AAA
TAFPDT
TAF AMD
KPDT 190013Z 1900/1924 13005KT 6SM BR VCSH SCT060 OVC100
      TEMPO 1900/1902 4SM -SHRA BR BKN060 OVC080
     FM190700 14006KT 5SM -RA BR BKN050 OVC060
     FM190900 16008KT 3SM -RA BR BKN040 OVC050
     FM191300 19010KT 3SM RA BKN020 OVC030
      TEMPO 1914/1917 2SM RA BR BKN010 OVC018
     FM191900 22006KT P6SM SCT035 BKN045=



000
FTUS46 KPDT 182300
TAFALW
TAF
KALW 182339Z 1900/1924 00000KT 3SM BR OVC100
      TEMPO 1900/1904 2SM BR SCT002
     FM190500 17005KT P6SM SCT050 OVC080
     FM190800 18007KT P6SM -RA BKN035 OVC050
     FM191100 17006KT 6SM RA BR BKN020 OVC027=



000
FTUS46 KPDT 182300
TAFYKM
TAF
KYKM 182339Z 1900/1924 18003KT 6SM HZ OVC015
     FM190200 27004KT 4SM -RA BR BKN008 OVC011
     FM190600 26003KT 1SM -RA BR OVC004
      TEMPO 1907/1911 1/4SM FG OVC001
     FM191100 VRB02KT 1/4SM FG VV001=



000
FTUS46 KPDT 182300
TAFRDM
TAF
KRDM 182339Z 1900/1924 18008KT P6SM BKN080 OVC100
     FM190300 12004KT P6SM -RA BKN040 OVC060
     FM191200 16005KT 5SM -RA BR SCT015 OVC030=



000
FTUS46 KPDT 182300
TAFPDT
TAF
KPDT 182339Z 1900/1924 VRB04KT P6SM SCT060 SCT130 OVC150
     FM190700 15009KT P6SM -RA BKN080 OVC100
     FM190900 18008KT P6SM -RA BKN040 OVC050
     FM191000 16010KT 6SM RA BR BKN025 OVC035=



000
FTUS46 KPDT 182300
TAFDLS
TAF
KDLS 182339Z 1900/1924 00000KT P6SM SCT015 OVC080
     FM190300 VRB03KT P6SM -RA BKN035 OVC050
     FM190600 00000KT 4SM -RA BR OVC025
     FM191000 VRB02KT 2SM -RA BR OVC005
     FM191200 28003KT 1SM BR OVC002=



000
FTUS46 KPDT 182300
TAFPSC
TAF
KPSC 182339Z 1900/1924 VRB03KT P6SM -RA BKN008 BKN110
     FM190100 13004KT P6SM BKN050 BKN060
     FM190600 13003KT 6SM -RA BR BKN035 OVC050
     FM191000 17007KT 3SM RA BR BKN025 OVC035
     FM191600 21011KT P6SM FEW050 BKN080 BKN150=



000
FTUS46 KPDT 182300 AAA
TAFDLS
TAF AMD
KDLS 182320Z 1823/1918 00000KT P6SM SCT015 OVC080
     FM190300 VRB03KT P6SM -RA BKN035 OVC050
     FM190600 00000KT 4SM -RA BR OVC025=



000
FTUS46 KPDT 182300 AAA
TAFALW
TAF AMD
KALW 182309Z 1823/1918 00000KT 3SM BR OVC100
     FM190500 17005KT P6SM SCT050 OVC080
     FM190900 18007KT P6SM -RA BKN035 OVC050
     FM191100 17006KT 6SM RA BR BKN020 OVC027=



000
FTUS46 KPDT 181800 AAA
TAFPSC
TAF AMD
KPSC 181850Z 1819/1918 VRB05KT P6SM FEW090 OVC180
     FM190100 13005KT P6SM BKN050 BKN060
     FM190900 14004KT 6SM -RA BR BKN035 OVC050
     FM191000 17007KT 3SM RA BR BKN025 OVC035
     FM191600 21011KT P6SM FEW050 BKN080 BKN150=



000
FTUS46 KPDT 181800 CCA
TAFPDT
TAF COR
KPDT 181829Z 1818/1918 09005KT 4SM BR SCT001 SCT050 OVC200
      TEMPO 1818/1821 2SM BR OVC001
     FM182100 VRB04KT P6SM SCT060 SCT130 OVC150
     FM190600 15009KT P6SM BKN080 OVC100
     FM190900 18008KT P6SM -RA BKN040 OVC050
     FM191000 16010KT 6SM RA BR BKN025 OVC035=



000
FTUS46 KPDT 181800 AAB
TAFPDT
TAF AMD
KPDT 181823Z 1818/1918 09005KT 4SM BR FEW002 SCT050 OVC200
      TEMPO 1819/1820 6SM BR
     FM182100 VRB04KT P6SM SCT060 SCT130 OVC150
     FM190600 15009KT P6SM BKN080 OVC100
     FM190900 18008KT P6SM -RA BKN040 OVC050
     FM191000 16010KT 6SM RA BR BKN025 OVC035=



000
FTUS46 KPDT 181800 AAA
TAFYKM
TAF AMD
KYKM 181807Z 1818/1918 00000KT 5SM BR OVC013
     FM182000 10004KT P6SM BKN011 OVC040
     FM190200 27004KT 4SM -RA BR BKN008 OVC011
     FM190600 26003KT 1SM -RA BR OVC004
      TEMPO 1907/1911 1/4SM FG OVC001
     FM191100 VRB02KT 1/4SM FG VV001=



000
FTUS46 KPDT 181700 RRA
TAFYKM
TAF
KYKM 181741Z 1818/1918 VRB02KT P6SM OVC015
     FM190200 27004KT 6SM -RA BR SCT010 OVC015
     FM190600 26003KT 4SM -RA BR OVC010=



000
FTUS46 KPDT 181700 RRA
TAFDLS
TAF
KDLS 181741Z 1818/1918 11004KT P6SM FEW007 OVC013
      TEMPO 1819/1820 BKN013 OVC050
     FM182000 10004KT P6SM SCT013 OVC050
     FM182100 VRB03KT P6SM OVC035
     FM182300 VRB03KT P6SM -RA OVC035
     FM190600 00000KT 4SM -RA BR OVC025=



000
FTUS46 KPDT 181700 RRA
TAFALW
TAF
KALW 181741Z 1818/1918 18007KT P6SM SCT050 SCT080 OVC180
     FM190500 17005KT P6SM SCT070 BKN080
     FM190900 18008KT P6SM -RA BKN035 OVC050
     FM191100 15005KT 6SM RA BR BKN020 OVC027=



000
FTUS46 KPDT 181700 RRA
TAFRDM
TAF
KRDM 181741Z 1818/1918 17005KT P6SM SCT015 BKN035
     FM182000 16005KT P6SM OVC050
     FM190300 12004KT P6SM VCSH BKN035 OVC040
     FM190600 16005KT 5SM -RA BR SCT015 OVC030=



000
FTUS46 KPDT 181700 RRA
TAFPDT
TAF
KPDT 181741Z 1818/1918 00000KT 6SM BR FEW002 FEW050 OVC200
     FM182000 VRB03KT P6SM SCT070 SCT130 OVC150
     FM190800 18008KT P6SM -RA BKN035 OVC050
     FM191000 15005KT 6SM RA BR BKN020 OVC030=



000
FTUS46 KPDT 181700 RRA
TAFPSC
TAF
KPSC 181741Z 1818/1918 VRB05KT 6SM BR SCT009 OVC020
     FM190300 13005KT P6SM VCSH BKN020 OVC060
     FM190900 14004KT P6SM -RA BKN035 OVC050
     FM191000 16005KT 4SM RA BR BKN020 OVC035
     FM191600 20011KT P6SM FEW050 BKN080 BKN150=



000
FTUS46 KPDT 181700 AAA
TAFPDT
TAF AMD
KPDT 181724Z 1817/1912 VRB03KT 3SM BR FEW001 SCT050 OVC200
      TEMPO 1817/1818 1/4SM FG VV001
     FM181800 VRB03KT 6SM BR FEW002 FEW050 SCT080
     FM182000 15004KT P6SM SCT070 SCT130 OVC150
     FM190300 12004KT 4SM BR VCSH SCT005 OVC035
     FM190600 13005KT 2SM -RA BR SCT005 OVC015=



000
FTUS46 KPDT 181700 AAA
TAFALW
TAF AMD
KALW 181711Z 1817/1912 27004KT P6SM SCT050 SCT080 BKN200
     FM181800 18007KT P6SM SCT050 SCT080 OVC180
     FM190500 17005KT P6SM SCT070 BKN080
     FM190900 18008KT P6SM -RA BKN035 OVC050
     FM191100 15005KT 6SM RA BR BKN020 OVC027=



000
FTUS46 KPDT 181600 AAA
TAFPDT
TAF AMD
KPDT 181646Z 1817/1912 00000KT 3SM BR BKN001 BKN050
      TEMPO 1817/1818 1/4SM FG VV001
     FM181800 00000KT 3SM BR SCT002 SCT050 OVC080
     FM181900 15004KT P6SM SCT050 BKN080
     FM190300 12004KT 4SM BR VCSH SCT005 OVC035
     FM190600 13005KT 2SM -RA BR SCT005 OVC015=



000
FTUS46 KPDT 181600 AAA
TAFDLS
TAF AMD
KDLS 181635Z 1817/1912 12003KT P6SM FEW007 OVC013
      TEMPO 1818/1819 BKN013 OVC050
     FM181900 10004KT P6SM SCT013 OVC050
     FM182000 VRB03KT P6SM OVC035
     FM182300 VRB03KT P6SM -RA OVC035
     FM190600 00000KT 4SM -RA BR OVC025=



000
FTUS46 KPDT 181300 AAA
TAFPSC
TAF AMD
KPSC 181356Z 1814/1912 00000KT 6SM BR FEW090 SCT110
     FM181700 VRB05KT 6SM BR SCT009 OVC020
     FM190300 13005KT P6SM VCSH BKN020 OVC060
     FM190600 14004KT 6SM -RA BR OVC020=



000
FTUS46 KPDT 181300 AAA
TAFPSC
TAF AMD
KPSC 181356Z 1814/1912 00000KT 6SM BR FEW090 SCT110
     FM181700 VRB05KT 6SM BR SCT009 OVC020
     FM190300 13005KT P6SM VCSH BKN020 OVC060
     FM190600 14004KT 6SM -RA BR OVC020=



000
FTUS46 KPDT 181200 AAA
TAFPDT
TAF AMD
KPDT 181254Z 1813/1912 00000KT 4SM BR OVC080
      TEMPO 1813/1816 1/4SM FG OVC002
     FM181600 00000KT 3SM BR SCT002 OVC080
     FM181800 15004KT P6SM OVC040
     FM190300 12004KT 4SM BR VCSH SCT005 OVC035
     FM190600 13005KT 2SM -RA BR SCT005 OVC015=



000
FTUS46 KPDT 181200 AAA
TAFPDT
TAF AMD
KPDT 181254Z 1813/1912 00000KT 4SM BR OVC080
      TEMPO 1813/1816 1/4SM FG OVC002
     FM181600 00000KT 3SM BR SCT002 OVC080
     FM181800 15004KT P6SM OVC040
     FM190300 12004KT 4SM BR VCSH SCT005 OVC035
     FM190600 13005KT 2SM -RA BR SCT005 OVC015=



000
FTUS46 KPDT 181100
TAFYKM
TAF
KYKM 181123Z 1812/1912 00000KT 6SM BR BKN015 OVC020
     FM181800 VRB02KT P6SM OVC015
     FM190200 27004KT 6SM -RA BR SCT010 OVC015
     FM190600 26003KT 4SM -RA BR OVC010=



000
FTUS46 KPDT 181100
TAFDLS
TAF
KDLS 181123Z 1812/1912 00000KT P6SM FEW009 OVC100
      TEMPO 1812/1814 3SM BR OVC009
     FM181500 00000KT 3SM BR SCT009 OVC012
     FM182000 VRB03KT P6SM OVC035
     FM182300 VRB03KT P6SM -RA OVC035
     FM190600 00000KT 4SM -RA BR OVC025=



000
FTUS46 KPDT 181100
TAFALW
TAF
KALW 181123Z 1812/1912 07003KT 3SM BR BKN060 OVC080
     FM182000 VRB03KT 4SM BR OVC050
     FM190300 17005KT 3SM BR VCSH SCT005 OVC015
     FM190600 13003KT 2SM -RA BR OVC007=



000
FTUS46 KPDT 181100
TAFPDT
TAF
KPDT 181123Z 1812/1912 00000KT 4SM BR SCT080 BKN120
     FM181500 00000KT 3SM BR SCT002 OVC080
     FM181800 15004KT P6SM OVC040
     FM190300 12004KT 4SM BR VCSH SCT005 OVC035
     FM190600 13005KT 2SM -RA BR SCT005 OVC015=



000
FTUS46 KPDT 181100
TAFPSC
TAF
KPSC 181123Z 1812/1912 10005KT 6SM BR FEW004 SCT100
     FM181400 VRB04KT 4SM BR OVC004
     FM181700 VRB05KT 6SM BR SCT009 OVC020
     FM190300 13005KT P6SM VCSH BKN020 OVC060
     FM190600 14004KT 6SM -RA BR OVC020=



000
FTUS46 KPDT 181100
TAFRDM
TAF
KRDM 181123Z 1812/1912 12005KT P6SM SCT050 BKN110
     FM181600 17005KT P6SM SCT015 BKN035
     FM182000 16005KT P6SM OVC050
     FM190300 12004KT P6SM VCSH BKN035 OVC040
     FM190600 16005KT 5SM -RA BR SCT015 OVC030=



000
FTUS46 KPDT 180600 AAA
TAFYKM
TAF AMD
KYKM 180648Z 1807/1906 00000KT 6SM -RA BR SCT015 OVC025
     FM180800 00000KT 4SM BR OVC015
     FM181800 VRB02KT P6SM OVC015
     FM190200 27004KT 6SM -RA BR OVC010=



000
FTUS46 KPDT 180500
TAFPSC
TAF
KPSC 180520Z 1806/1906 VRB03KT 5SM BR OVC015
     FM180900 00000KT 4SM BR OVC009
     FM181800 VRB05KT P6SM SCT009 OVC020=



000
FTUS46 KPDT 180500
TAFDLS
TAF
KDLS 180520Z 1806/1906 VRB03KT 4SM -RA BR OVC015
     FM181000 00000KT 2SM BR OVC008
     FM181500 00000KT 3SM BR OVC012
     FM182000 VRB03KT P6SM OVC035=



000
FTUS46 KPDT 180500
TAFRDM
TAF
KRDM 180520Z 1806/1906 VRB03KT 6SM -RA BR SCT006 BKN060 OVC100
      TEMPO 1806/1810 4SM BR BKN006
     FM181100 VRB03KT 2SM BR OVC005
     FM181600 17005KT P6SM SCT015 BKN035=



000
FTUS46 KPDT 180500
TAFALW
TAF
KALW 180520Z 1806/1906 VRB03KT 1SM -RA BR OVC003
      TEMPO 1806/1810 4SM BR BKN006
     FM181000 00000KT 1SM BR OVC002
     FM181800 VRB03KT 3SM BR OVC007=



000
FTUS46 KPDT 180500
TAFPDT
TAF
KPDT 180520Z 1806/1906 17003KT 2SM -RA BR OVC003
      TEMPO 1806/1810 1/4SM FG
     FM181000 00000KT 1SM BR OVC002
     FM181800 VRB03KT 3SM BR OVC007=



000
FTUS46 KPDT 180500
TAFYKM
TAF
KYKM 180520Z 1806/1906 00000KT 4SM -RA BR OVC011
     FM180800 00000KT 2SM BR OVC007
     FM181600 VRB02KT 3SM BR OVC009
     FM181800 VRB02KT P6SM OVC015
     FM190200 27004KT 6SM -RA BR OVC010=



000
FTUS46 KPDT 180400 AAC
TAFRDM
TAF AMD
KRDM 180410Z 1804/1824 VRB03KT 6SM -RA BR SCT006 BKN060 OVC100
     FM180800 VRB03KT 2SM BR OVC005
     FM181600 17005KT P6SM OVC015=



000
FTUS46 KPDT 180300 AAB
TAFPDT
TAF AMD
KPDT 180302Z 1803/1824 05003KT 2SM BR OVC004
      TEMPO 1803/1806 1/2SM FG
     FM180600 17003KT 1/4SM FG VV002
     FM181800 VRB03KT 3SM BR OVC007=



000
FTUS46 KPDT 180200 AAB
TAFRDM
TAF AMD
KRDM 180216Z 1802/1824 VRB03KT 6SM -RA BR SCT006 BKN060 OVC100
     FM180400 VRB03KT 2SM BR OVC005
     FM180800 00000KT 1 1/2SM BR OVC003
     FM181600 17005KT P6SM OVC015=



000
FTUS46 KPDT 180100 AAA
TAFPSC
TAF AMD
KPSC 180129Z 1801/1824 VRB04KT P6SM OVC020
     FM180600 VRB03KT 5SM BR OVC009
     FM180900 00000KT 4SM BR OVC005
     FM181700 VRB02KT 6SM BR OVC009
     FM182000 VRB02KT P6SM SCT009 OVC025=



000
FTUS46 KPDT 180100 AAB
TAFDLS
TAF AMD
KDLS 180127Z 1801/1824 VRB03KT 6SM BR SCT009 OVC022
     FM180300 VRB03KT 4SM -RA BR OVC012
     FM180700 00000KT 2SM BR OVC007
     FM181800 00000KT 3SM BR OVC012
     FM182000 VRB03KT P6SM OVC015=



000
FTUS46 KPDT 180100 AAB
TAFDLS
TAF AMD
KDLS 180127Z 1801/1824 VRB03KT 6SM BR SCT009 OVC022
     FM180300 VRB03KT 4SM -RA BR OVC012
     FM180700 00000KT 2SM BR OVC007
     FM181800 00000KT 3SM BR OVC012
     FM182000 VRB03KT P6SM OVC015=



000
FTUS46 KPDT 180100 AAA
TAFPDT
TAF AMD
KPDT 180126Z 1801/1824 31007KT 2SM BR OVC005
     FM180300 05003KT 1/2SM FG OVC002
      TEMPO 1803/1806 1/4SM FG VV001
     FM180600 17003KT 1/4SM FG VV001
     FM181800 VRB03KT 3SM BR OVC007=



000
FTUS46 KPDT 180100 AAA
TAFPDT
TAF AMD
KPDT 180126Z 1801/1824 31007KT 2SM BR OVC005
     FM180300 05003KT 1/2SM FG OVC002
      TEMPO 1803/1806 1/4SM FG VV001
     FM180600 17003KT 1/4SM FG VV001
     FM181800 VRB03KT 3SM BR OVC007=



000
FTUS46 KPDT 180000 AAA
TAFDLS
TAF AMD
KDLS 180005Z 1800/1824 11003KT 6SM BR SCT009 OVC022
      TEMPO 1800/1803 5SM BR OVC009
     FM180300 11002KT 4SM -RA BR OVC007
     FM180700 00000KT 2SM BR OVC007
     FM181600 00000KT 3SM BR OVC009
     FM182000 VRB03KT P6SM OVC015=



000
FTUS46 KPDT 180000 AAA
TAFRDM
TAF AMD
KRDM 180004Z 1800/1824 31006KT 6SM -RA BR BKN006 OVC070
      TEMPO 1800/1802 SCT006 OVC070
     FM180200 20005KT 4SM -RA BR OVC005
     FM180400 VRB03KT 2SM BR OVC005
     FM180800 00000KT 1 1/2SM BR OVC003
     FM181600 17005KT P6SM OVC015=



000
FTUS46 KPDT 172300
TAFDLS
TAF
KDLS 172320Z 1800/1824 11003KT 6SM BR SCT009 OVC015
      TEMPO 1800/1803 5SM BR OVC009
     FM180300 11002KT 4SM -RA BR OVC007
     FM180700 00000KT 2SM BR OVC007
     FM181600 00000KT 3SM BR OVC009
     FM182000 VRB03KT P6SM OVC015=



000
FTUS46 KPDT 172300
TAFRDM
TAF
KRDM 172320Z 1800/1824 31006KT 6SM -RA BR BKN006 OVC070
     FM180100 20005KT 4SM -RA BR OVC005
     FM180400 VRB03KT 2SM BR OVC005
     FM180800 00000KT 1 1/2SM BR OVC003
     FM181600 17005KT P6SM OVC015=



000
FTUS46 KPDT 172300
TAFYKM
TAF
KYKM 172320Z 1800/1824 VRB02KT P6SM VCSH SCT010 OVC020
     FM180300 28003KT 4SM BR OVC011
     FM180800 00000KT 2SM BR OVC007
     FM181600 VRB02KT 3SM BR OVC009
     FM181800 VRB02KT P6SM OVC015=



000
FTUS46 KPDT 172300
TAFPDT
TAF
KPDT 172320Z 1800/1824 31007KT 1/4SM FG OVC003
      TEMPO 1800/1802 1 1/2SM BR OVC007
     FM180200 05003KT 1/2SM FG OVC002
      TEMPO 1802/1806 1/4SM FG VV001
     FM180600 17003KT 1/4SM FG VV001
     FM181800 VRB03KT 3SM BR OVC007=



000
FTUS46 KPDT 172300
TAFALW
TAF
KALW 172320Z 1800/1824 VRB04KT P6SM SCT005 OVC070
      TEMPO 1800/1802 3SM BR OVC005
     FM180200 VRB02KT 1 1/2SM BR OVC004
     FM180400 15003KT 1/2SM FG OVC002
     FM180600 VRB03KT 1/4SM FG OVC001
     FM181800 VRB03KT 3SM BR OVC007=



000
FTUS46 KPDT 172300
TAFPSC
TAF
KPSC 172320Z 1800/1824 VRB04KT P6SM SCT015 OVC070
     FM180200 02003KT P6SM OVC015
     FM180500 VRB03KT 5SM BR OVC009
     FM180900 00000KT 4SM BR OVC005
     FM181700 VRB02KT 6SM BR OVC009
     FM182000 VRB02KT P6SM SCT009 OVC025=



000
FTUS46 KPDT 172200 AAA
TAFPDT
TAF AMD
KPDT 172233Z 1723/1818 31007KT 1/4SM FG OVC004
      TEMPO 1723/1802 1 1/2SM BR OVC007
     FM180200 05004KT 2SM BR OVC003
     FM180400 05003KT 1/2SM FG OVC002
     FM180700 17003KT 1/4SM FG OVC001=



    US Dept of Commerce
    National Oceanic and Atmospheric Administration
    National Weather Service
    1325 East West Highway
    Silver Spring, MD 20910
    Page Author: NWS Internet Services Team
Disclaimer
Information Quality
Credits
Glossary
Privacy Policy
Freedom of Information Act (FOIA)
About Us
Career Opportunities